sensor_id;sensor_type;location;lat;lon;timestamp;P1;durP1;ratioP1;P2;durP2;ratioP2
21243;SDS011;10780;50.942;4.028;2022-08-03T00:00:37;3.90;;;1.60;;
21243;SDS011;10780;50.942;4.028;2022-08-03T00:03:03;5.30;;;2.00;;
21243;SDS011;10780;50.942;4.028;2022-08-03T00:05:29;6.00;;;2.00;;
21243;SDS011;10780;50.942;4.028;2022-08-03T00:07:56;5.00;;;1.60;;
21243;SDS011;10780;50.942;4.028;2022-08-03T00:10:23;2.10;;;1.30;;
21243;SDS011;10780;50.942;4.028;2022-08-03T00:12:48;4.55;;;1.85;;
21243;SDS011;10780;50.942;4.028;2022-08-03T00:15:14;3.92;;;1.63;;
21243;SDS011;10780;50.942;4.028;2022-08-03T00:17:40;6.45;;;1.98;;
21243;SDS011;10780;50.942;4.028;2022-08-03T00:20:07;4.07;;;1.60;;
21243;SDS011;10780;50.942;4.028;2022-08-03T00:22:36;4.10;;;2.30;;
21243;SDS011;10780;50.942;4.028;2022-08-03T00:25:01;6.13;;;1.70;;
21243;SDS011;10780;50.942;4.028;2022-08-03T00:27:27;2.17;;;1.30;;
21243;SDS011;10780;50.942;4.028;2022-08-03T00:29:53;4.93;;;1.80;;
21243;SDS011;10780;50.942;4.028;2022-08-03T00:32:18;5.05;;;1.73;;
21243;SDS011;10780;50.942;4.028;2022-08-03T00:34:44;3.90;;;1.40;;
21243;SDS011;10780;50.942;4.028;2022-08-03T00:37:10;6.20;;;1.60;;
21243;SDS011;10780;50.942;4.028;2022-08-03T00:39:35;4.82;;;1.83;;
21243;SDS011;10780;50.942;4.028;2022-08-03T00:42:04;8.15;;;2.08;;
21243;SDS011;10780;50.942;4.028;2022-08-03T00:44:30;5.03;;;1.63;;
21243;SDS011;10780;50.942;4.028;2022-08-03T00:46:56;7.45;;;1.80;;
21243;SDS011;10780;50.942;4.028;2022-08-03T00:49:22;8.15;;;2.40;;
21243;SDS011;10780;50.942;4.028;2022-08-03T00:51:48;5.45;;;2.00;;
21243;SDS011;10780;50.942;4.028;2022-08-03T00:54:14;4.95;;;1.70;;
21243;SDS011;10780;50.942;4.028;2022-08-03T00:56:40;4.13;;;1.50;;
21243;SDS011;10780;50.942;4.028;2022-08-03T00:59:08;7.43;;;2.00;;
21243;SDS011;10780;50.942;4.028;2022-08-03T01:01:34;5.35;;;1.60;;
21243;SDS011;10780;50.942;4.028;2022-08-03T01:04:00;5.57;;;1.63;;
21243;SDS011;10780;50.942;4.028;2022-08-03T01:07:10;8.07;;;2.20;;
21243;SDS011;10780;50.942;4.028;2022-08-03T01:12:15;3.03;;;1.67;;
21243;SDS011;10780;50.942;4.028;2022-08-03T01:15:05;4.95;;;1.73;;
21243;SDS011;10780;50.942;4.028;2022-08-03T01:17:50;6.53;;;1.80;;
21243;SDS011;10780;50.942;4.028;2022-08-03T01:20:28;5.78;;;1.88;;
21243;SDS011;10780;50.942;4.028;2022-08-03T01:28:47;4.32;;;1.75;;
21243;SDS011;10780;50.942;4.028;2022-08-03T01:31:28;3.53;;;1.90;;
21243;SDS011;10780;50.942;4.028;2022-08-03T01:34:00;6.20;;;1.90;;
21243;SDS011;10780;50.942;4.028;2022-08-03T01:36:31;5.60;;;1.90;;
21243;SDS011;10780;50.942;4.028;2022-08-03T01:39:02;6.80;;;2.17;;
21243;SDS011;10780;50.942;4.028;2022-08-03T01:41:33;5.95;;;1.92;;
21243;SDS011;10780;50.942;4.028;2022-08-03T01:44:03;5.22;;;1.70;;
21243;SDS011;10780;50.942;4.028;2022-08-03T01:46:33;5.10;;;1.60;;
21243;SDS011;10780;50.942;4.028;2022-08-03T01:49:00;4.30;;;1.90;;
21243;SDS011;10780;50.942;4.028;2022-08-03T01:51:27;4.65;;;2.05;;
21243;SDS011;10780;50.942;4.028;2022-08-03T01:53:54;5.78;;;2.05;;
21243;SDS011;10780;50.942;4.028;2022-08-03T01:56:23;6.22;;;1.73;;
21243;SDS011;10780;50.942;4.028;2022-08-03T01:58:51;4.25;;;1.90;;
21243;SDS011;10780;50.942;4.028;2022-08-03T02:01:19;6.70;;;1.88;;
21243;SDS011;10780;50.942;4.028;2022-08-03T02:03:46;6.68;;;2.03;;
21243;SDS011;10780;50.942;4.028;2022-08-03T02:06:14;4.07;;;1.80;;
21243;SDS011;10780;50.942;4.028;2022-08-03T02:08:41;8.88;;;2.63;;
21243;SDS011;10780;50.942;4.028;2022-08-03T02:11:08;7.50;;;2.95;;
21243;SDS011;10780;50.942;4.028;2022-08-03T02:13:35;6.55;;;2.03;;
21243;SDS011;10780;50.942;4.028;2022-08-03T02:16:02;7.22;;;1.98;;
21243;SDS011;10780;50.942;4.028;2022-08-03T02:18:29;5.15;;;2.00;;
21243;SDS011;10780;50.942;4.028;2022-08-03T02:20:56;4.00;;;1.73;;
21243;SDS011;10780;50.942;4.028;2022-08-03T02:23:27;4.90;;;2.25;;
21243;SDS011;10780;50.942;4.028;2022-08-03T02:25:56;5.15;;;2.58;;
21243;SDS011;10780;50.942;4.028;2022-08-03T02:28:34;6.53;;;2.30;;
21243;SDS011;10780;50.942;4.028;2022-08-03T02:31:03;6.55;;;2.10;;
21243;SDS011;10780;50.942;4.028;2022-08-03T02:33:36;6.55;;;2.20;;
21243;SDS011;10780;50.942;4.028;2022-08-03T02:36:06;5.53;;;1.90;;
21243;SDS011;10780;50.942;4.028;2022-08-03T02:38:35;4.55;;;2.00;;
21243;SDS011;10780;50.942;4.028;2022-08-03T02:41:15;3.78;;;1.80;;
21243;SDS011;10780;50.942;4.028;2022-08-03T02:43:44;4.28;;;1.77;;
21243;SDS011;10780;50.942;4.028;2022-08-03T02:46:16;4.72;;;1.70;;
21243;SDS011;10780;50.942;4.028;2022-08-03T02:48:44;5.57;;;2.22;;
21243;SDS011;10780;50.942;4.028;2022-08-03T02:51:12;5.93;;;2.20;;
21243;SDS011;10780;50.942;4.028;2022-08-03T02:53:38;4.95;;;2.00;;
21243;SDS011;10780;50.942;4.028;2022-08-03T02:56:05;4.20;;;2.10;;
21243;SDS011;10780;50.942;4.028;2022-08-03T02:58:32;6.80;;;1.77;;
21243;SDS011;10780;50.942;4.028;2022-08-03T03:00:58;5.30;;;2.20;;
21243;SDS011;10780;50.942;4.028;2022-08-03T03:03:25;7.32;;;2.10;;
21243;SDS011;10780;50.942;4.028;2022-08-03T03:05:51;7.28;;;2.00;;
21243;SDS011;10780;50.942;4.028;2022-08-03T03:08:18;5.60;;;2.25;;
21243;SDS011;10780;50.942;4.028;2022-08-03T03:10:45;6.00;;;2.05;;
21243;SDS011;10780;50.942;4.028;2022-08-03T03:13:13;5.32;;;1.90;;
21243;SDS011;10780;50.942;4.028;2022-08-03T03:15:39;6.55;;;2.20;;
21243;SDS011;10780;50.942;4.028;2022-08-03T03:18:07;6.07;;;2.47;;
21243;SDS011;10780;50.942;4.028;2022-08-03T03:20:34;7.07;;;2.33;;
21243;SDS011;10780;50.942;4.028;2022-08-03T03:23:02;8.80;;;2.10;;
21243;SDS011;10780;50.942;4.028;2022-08-03T03:25:32;4.68;;;2.47;;
21243;SDS011;10780;50.942;4.028;2022-08-03T03:27:59;7.13;;;2.03;;
21243;SDS011;10780;50.942;4.028;2022-08-03T03:30:26;6.78;;;2.55;;
21243;SDS011;10780;50.942;4.028;2022-08-03T03:32:53;3.63;;;1.95;;
21243;SDS011;10780;50.942;4.028;2022-08-03T03:35:19;6.55;;;2.47;;
21243;SDS011;10780;50.942;4.028;2022-08-03T03:37:45;7.80;;;2.30;;
21243;SDS011;10780;50.942;4.028;2022-08-03T03:40:11;8.00;;;2.58;;
21243;SDS011;10780;50.942;4.028;2022-08-03T03:42:37;5.68;;;2.25;;
21243;SDS011;10780;50.942;4.028;2022-08-03T03:45:06;7.40;;;2.20;;
21243;SDS011;10780;50.942;4.028;2022-08-03T03:47:33;6.38;;;2.20;;
21243;SDS011;10780;50.942;4.028;2022-08-03T03:50:00;5.22;;;2.45;;
21243;SDS011;10780;50.942;4.028;2022-08-03T03:52:30;6.60;;;2.17;;
21243;SDS011;10780;50.942;4.028;2022-08-03T03:54:57;9.10;;;2.33;;
21243;SDS011;10780;50.942;4.028;2022-08-03T03:57:22;7.30;;;2.70;;
21243;SDS011;10780;50.942;4.028;2022-08-03T03:59:49;6.18;;;2.30;;
21243;SDS011;10780;50.942;4.028;2022-08-03T04:02:14;5.10;;;2.33;;
21243;SDS011;10780;50.942;4.028;2022-08-03T04:04:40;5.38;;;2.17;;
21243;SDS011;10780;50.942;4.028;2022-08-03T04:07:25;7.75;;;2.40;;
21243;SDS011;10780;50.942;4.028;2022-08-03T04:10:14;5.72;;;2.20;;
21243;SDS011;10780;50.942;4.028;2022-08-03T04:13:03;6.75;;;2.75;;
21243;SDS011;10780;50.942;4.028;2022-08-03T04:15:34;5.85;;;2.22;;
21243;SDS011;10780;50.942;4.028;2022-08-03T04:18:01;6.38;;;2.45;;
21243;SDS011;10780;50.942;4.028;2022-08-03T04:20:29;3.83;;;2.33;;
21243;SDS011;10780;50.942;4.028;2022-08-03T04:22:59;6.25;;;2.00;;
21243;SDS011;10780;50.942;4.028;2022-08-03T04:25:27;6.15;;;2.63;;
21243;SDS011;10780;50.942;4.028;2022-08-03T04:27:56;7.18;;;2.58;;
21243;SDS011;10780;50.942;4.028;2022-08-03T04:30:26;12.13;;;2.90;;
21243;SDS011;10780;50.942;4.028;2022-08-03T04:32:57;6.13;;;2.20;;
21243;SDS011;10780;50.942;4.028;2022-08-03T04:35:23;7.72;;;2.60;;
21243;SDS011;10780;50.942;4.028;2022-08-03T04:37:51;7.60;;;2.15;;
21243;SDS011;10780;50.942;4.028;2022-08-03T04:40:40;10.95;;;2.88;;
21243;SDS011;10780;50.942;4.028;2022-08-03T04:43:06;6.35;;;2.38;;
21243;SDS011;10780;50.942;4.028;2022-08-03T04:45:33;9.02;;;2.70;;
21243;SDS011;10780;50.942;4.028;2022-08-03T04:48:00;5.95;;;2.20;;
21243;SDS011;10780;50.942;4.028;2022-08-03T04:50:28;4.55;;;2.40;;
21243;SDS011;10780;50.942;4.028;2022-08-03T04:52:54;5.93;;;2.50;;
21243;SDS011;10780;50.942;4.028;2022-08-03T04:55:27;5.85;;;2.60;;
21243;SDS011;10780;50.942;4.028;2022-08-03T04:57:53;6.95;;;2.85;;
21243;SDS011;10780;50.942;4.028;2022-08-03T05:00:20;5.78;;;2.58;;
21243;SDS011;10780;50.942;4.028;2022-08-03T05:02:46;5.15;;;2.20;;
21243;SDS011;10780;50.942;4.028;2022-08-03T05:05:12;6.75;;;2.40;;
21243;SDS011;10780;50.942;4.028;2022-08-03T05:07:38;8.00;;;2.70;;
21243;SDS011;10780;50.942;4.028;2022-08-03T05:10:05;7.78;;;2.65;;
21243;SDS011;10780;50.942;4.028;2022-08-03T05:12:32;6.95;;;2.35;;
21243;SDS011;10780;50.942;4.028;2022-08-03T05:14:57;7.65;;;2.65;;
21243;SDS011;10780;50.942;4.028;2022-08-03T05:17:23;7.18;;;2.63;;
21243;SDS011;10780;50.942;4.028;2022-08-03T05:19:48;7.88;;;2.80;;
21243;SDS011;10780;50.942;4.028;2022-08-03T05:22:14;8.98;;;2.67;;
21243;SDS011;10780;50.942;4.028;2022-08-03T05:24:40;6.22;;;2.67;;
21243;SDS011;10780;50.942;4.028;2022-08-03T05:27:05;7.90;;;2.22;;
21243;SDS011;10780;50.942;4.028;2022-08-03T05:29:31;7.43;;;2.30;;
21243;SDS011;10780;50.942;4.028;2022-08-03T05:31:56;6.88;;;2.50;;
21243;SDS011;10780;50.942;4.028;2022-08-03T05:34:22;7.88;;;2.88;;
21243;SDS011;10780;50.942;4.028;2022-08-03T05:36:47;7.90;;;2.85;;
21243;SDS011;10780;50.942;4.028;2022-08-03T05:39:13;4.93;;;2.17;;
21243;SDS011;10780;50.942;4.028;2022-08-03T05:41:39;5.47;;;2.30;;
21243;SDS011;10780;50.942;4.028;2022-08-03T05:44:04;3.58;;;2.42;;
21243;SDS011;10780;50.942;4.028;2022-08-03T05:46:30;7.78;;;2.42;;
21243;SDS011;10780;50.942;4.028;2022-08-03T05:48:56;6.78;;;2.33;;
21243;SDS011;10780;50.942;4.028;2022-08-03T05:51:21;4.28;;;2.40;;
21243;SDS011;10780;50.942;4.028;2022-08-03T05:53:47;6.35;;;2.60;;
21243;SDS011;10780;50.942;4.028;2022-08-03T05:56:13;8.50;;;2.88;;
21243;SDS011;10780;50.942;4.028;2022-08-03T05:58:38;5.82;;;2.50;;
21243;SDS011;10780;50.942;4.028;2022-08-03T06:01:04;8.52;;;2.85;;
21243;SDS011;10780;50.942;4.028;2022-08-03T06:03:29;7.25;;;2.50;;
21243;SDS011;10780;50.942;4.028;2022-08-03T06:05:55;8.02;;;2.58;;
21243;SDS011;10780;50.942;4.028;2022-08-03T06:08:21;4.93;;;2.30;;
21243;SDS011;10780;50.942;4.028;2022-08-03T06:10:47;5.10;;;2.50;;
21243;SDS011;10780;50.942;4.028;2022-08-03T06:13:13;6.93;;;2.40;;
21243;SDS011;10780;50.942;4.028;2022-08-03T06:15:39;6.38;;;2.65;;
21243;SDS011;10780;50.942;4.028;2022-08-03T06:18:05;6.72;;;2.63;;
21243;SDS011;10780;50.942;4.028;2022-08-03T06:20:32;5.68;;;2.40;;
21243;SDS011;10780;50.942;4.028;2022-08-03T06:22:58;7.35;;;2.50;;
21243;SDS011;10780;50.942;4.028;2022-08-03T06:25:24;6.43;;;2.30;;
21243;SDS011;10780;50.942;4.028;2022-08-03T06:27:50;7.32;;;2.05;;
21243;SDS011;10780;50.942;4.028;2022-08-03T06:30:16;6.75;;;2.17;;
21243;SDS011;10780;50.942;4.028;2022-08-03T06:32:42;7.57;;;2.42;;
21243;SDS011;10780;50.942;4.028;2022-08-03T06:35:08;9.15;;;2.20;;
21243;SDS011;10780;50.942;4.028;2022-08-03T06:37:45;9.57;;;2.42;;
21243;SDS011;10780;50.942;4.028;2022-08-03T06:40:12;5.88;;;2.22;;
21243;SDS011;10780;50.942;4.028;2022-08-03T06:42:40;6.35;;;2.08;;
21243;SDS011;10780;50.942;4.028;2022-08-03T06:45:06;5.13;;;2.42;;
21243;SDS011;10780;50.942;4.028;2022-08-03T06:47:33;5.45;;;2.15;;
21243;SDS011;10780;50.942;4.028;2022-08-03T06:50:03;5.40;;;2.67;;
21243;SDS011;10780;50.942;4.028;2022-08-03T06:52:30;5.63;;;2.05;;
21243;SDS011;10780;50.942;4.028;2022-08-03T06:54:55;4.75;;;2.03;;
21243;SDS011;10780;50.942;4.028;2022-08-03T06:57:21;8.45;;;2.17;;
21243;SDS011;10780;50.942;4.028;2022-08-03T06:59:47;5.97;;;2.00;;
21243;SDS011;10780;50.942;4.028;2022-08-03T07:02:12;4.72;;;1.73;;
21243;SDS011;10780;50.942;4.028;2022-08-03T07:04:38;7.53;;;2.35;;
21243;SDS011;10780;50.942;4.028;2022-08-03T07:07:04;5.68;;;2.05;;
21243;SDS011;10780;50.942;4.028;2022-08-03T07:09:29;7.00;;;2.10;;
21243;SDS011;10780;50.942;4.028;2022-08-03T07:11:55;8.10;;;2.13;;
21243;SDS011;10780;50.942;4.028;2022-08-03T07:14:21;6.07;;;2.13;;
21243;SDS011;10780;50.942;4.028;2022-08-03T07:16:47;6.30;;;2.60;;
21243;SDS011;10780;50.942;4.028;2022-08-03T07:19:12;6.07;;;2.47;;
21243;SDS011;10780;50.942;4.028;2022-08-03T07:21:38;6.68;;;2.30;;
21243;SDS011;10780;50.942;4.028;2022-08-03T07:24:04;6.32;;;2.95;;
21243;SDS011;10780;50.942;4.028;2022-08-03T07:26:30;5.80;;;1.92;;
21243;SDS011;10780;50.942;4.028;2022-08-03T07:28:55;8.07;;;1.88;;
21243;SDS011;10780;50.942;4.028;2022-08-03T07:31:21;5.72;;;2.83;;
21243;SDS011;10780;50.942;4.028;2022-08-03T07:33:46;8.45;;;2.30;;
21243;SDS011;10780;50.942;4.028;2022-08-03T07:36:12;10.45;;;2.60;;
21243;SDS011;10780;50.942;4.028;2022-08-03T07:38:37;8.68;;;1.77;;
21243;SDS011;10780;50.942;4.028;2022-08-03T07:41:03;7.20;;;2.22;;
21243;SDS011;10780;50.942;4.028;2022-08-03T07:43:29;7.93;;;2.15;;
21243;SDS011;10780;50.942;4.028;2022-08-03T07:45:54;7.30;;;1.80;;
21243;SDS011;10780;50.942;4.028;2022-08-03T07:48:20;5.53;;;1.90;;
21243;SDS011;10780;50.942;4.028;2022-08-03T07:50:45;9.23;;;2.35;;
21243;SDS011;10780;50.942;4.028;2022-08-03T07:53:11;7.60;;;2.40;;
21243;SDS011;10780;50.942;4.028;2022-08-03T07:55:37;7.95;;;2.28;;
21243;SDS011;10780;50.942;4.028;2022-08-03T07:58:03;7.25;;;2.83;;
21243;SDS011;10780;50.942;4.028;2022-08-03T08:00:31;6.00;;;2.17;;
21243;SDS011;10780;50.942;4.028;2022-08-03T08:02:57;8.30;;;2.67;;
21243;SDS011;10780;50.942;4.028;2022-08-03T08:05:23;7.00;;;1.92;;
21243;SDS011;10780;50.942;4.028;2022-08-03T08:07:49;9.50;;;2.30;;
21243;SDS011;10780;50.942;4.028;2022-08-03T08:10:15;8.35;;;2.05;;
21243;SDS011;10780;50.942;4.028;2022-08-03T08:12:40;12.77;;;2.53;;
21243;SDS011;10780;50.942;4.028;2022-08-03T08:15:06;6.00;;;2.28;;
21243;SDS011;10780;50.942;4.028;2022-08-03T08:17:46;8.18;;;1.80;;
21243;SDS011;10780;50.942;4.028;2022-08-03T08:20:15;7.53;;;2.33;;
21243;SDS011;10780;50.942;4.028;2022-08-03T08:22:43;11.35;;;3.25;;
21243;SDS011;10780;50.942;4.028;2022-08-03T08:25:09;11.07;;;2.38;;
21243;SDS011;10780;50.942;4.028;2022-08-03T08:27:42;7.95;;;2.33;;
21243;SDS011;10780;50.942;4.028;2022-08-03T08:30:12;11.80;;;2.78;;
21243;SDS011;10780;50.942;4.028;2022-08-03T08:32:39;10.35;;;2.83;;
21243;SDS011;10780;50.942;4.028;2022-08-03T08:35:06;9.30;;;1.98;;
21243;SDS011;10780;50.942;4.028;2022-08-03T08:37:33;10.70;;;2.45;;
21243;SDS011;10780;50.942;4.028;2022-08-03T08:39:59;6.50;;;2.05;;
21243;SDS011;10780;50.942;4.028;2022-08-03T08:42:25;8.73;;;2.50;;
21243;SDS011;10780;50.942;4.028;2022-08-03T08:44:51;8.32;;;2.20;;
21243;SDS011;10780;50.942;4.028;2022-08-03T08:47:22;5.45;;;2.00;;
21243;SDS011;10780;50.942;4.028;2022-08-03T08:49:52;9.75;;;2.03;;
21243;SDS011;10780;50.942;4.028;2022-08-03T08:52:24;8.48;;;1.90;;
21243;SDS011;10780;50.942;4.028;2022-08-03T08:54:51;8.90;;;1.95;;
21243;SDS011;10780;50.942;4.028;2022-08-03T08:57:21;5.72;;;2.22;;
21243;SDS011;10780;50.942;4.028;2022-08-03T08:59:51;8.38;;;1.73;;
21243;SDS011;10780;50.942;4.028;2022-08-03T09:02:20;10.10;;;2.13;;
21243;SDS011;10780;50.942;4.028;2022-08-03T09:04:49;8.65;;;2.20;;
21243;SDS011;10780;50.942;4.028;2022-08-03T09:07:15;6.43;;;1.90;;
21243;SDS011;10780;50.942;4.028;2022-08-03T09:09:41;8.13;;;2.00;;
21243;SDS011;10780;50.942;4.028;2022-08-03T09:12:08;7.53;;;2.30;;
21243;SDS011;10780;50.942;4.028;2022-08-03T09:14:33;6.47;;;1.85;;
21243;SDS011;10780;50.942;4.028;2022-08-03T09:17:00;11.38;;;2.42;;
21243;SDS011;10780;50.942;4.028;2022-08-03T09:19:27;10.45;;;1.92;;
21243;SDS011;10780;50.942;4.028;2022-08-03T09:24:33;9.15;;;2.67;;
21243;SDS011;10780;50.942;4.028;2022-08-03T09:27:00;7.10;;;1.77;;
21243;SDS011;10780;50.942;4.028;2022-08-03T09:29:25;7.05;;;2.20;;
21243;SDS011;10780;50.942;4.028;2022-08-03T09:31:59;8.80;;;2.10;;
21243;SDS011;10780;50.942;4.028;2022-08-03T09:34:27;6.38;;;1.85;;
21243;SDS011;10780;50.942;4.028;2022-08-03T09:36:53;8.68;;;1.98;;
21243;SDS011;10780;50.942;4.028;2022-08-03T09:39:20;6.40;;;1.83;;
21243;SDS011;10780;50.942;4.028;2022-08-03T09:41:48;6.55;;;1.70;;
21243;SDS011;10780;50.942;4.028;2022-08-03T09:45:04;5.30;;;1.80;;
21243;SDS011;10780;50.942;4.028;2022-08-03T09:47:26;7.95;;;1.92;;
21243;SDS011;10780;50.942;4.028;2022-08-03T09:49:58;5.43;;;1.85;;
21243;SDS011;10780;50.942;4.028;2022-08-03T09:52:30;7.47;;;1.92;;
21243;SDS011;10780;50.942;4.028;2022-08-03T09:54:57;7.03;;;2.05;;
21243;SDS011;10780;50.942;4.028;2022-08-03T09:57:25;3.63;;;1.67;;
21243;SDS011;10780;50.942;4.028;2022-08-03T09:59:52;4.00;;;1.75;;
21243;SDS011;10780;50.942;4.028;2022-08-03T10:04:49;4.60;;;1.60;;
21243;SDS011;10780;50.942;4.028;2022-08-03T10:07:17;7.07;;;2.00;;
21243;SDS011;10780;50.942;4.028;2022-08-03T10:09:59;4.75;;;1.67;;
21243;SDS011;10780;50.942;4.028;2022-08-03T10:12:26;10.23;;;2.08;;
21243;SDS011;10780;50.942;4.028;2022-08-03T10:14:53;6.20;;;1.67;;
21243;SDS011;10780;50.942;4.028;2022-08-03T10:17:20;4.30;;;1.83;;
21243;SDS011;10780;50.942;4.028;2022-08-03T10:19:46;5.82;;;1.70;;
21243;SDS011;10780;50.942;4.028;2022-08-03T10:22:14;5.20;;;1.77;;
21243;SDS011;10780;50.942;4.028;2022-08-03T10:24:47;5.30;;;1.50;;
21243;SDS011;10780;50.942;4.028;2022-08-03T10:27:18;6.68;;;1.92;;
21243;SDS011;10780;50.942;4.028;2022-08-03T10:29:46;5.60;;;2.00;;
21243;SDS011;10780;50.942;4.028;2022-08-03T10:32:20;6.20;;;1.40;;
21243;SDS011;10780;50.942;4.028;2022-08-03T10:34:50;7.13;;;1.70;;
21243;SDS011;10780;50.942;4.028;2022-08-03T10:37:18;3.47;;;1.60;;
21243;SDS011;10780;50.942;4.028;2022-08-03T10:39:47;6.55;;;1.80;;
21243;SDS011;10780;50.942;4.028;2022-08-03T10:42:23;10.13;;;2.08;;
21243;SDS011;10780;50.942;4.028;2022-08-03T10:44:52;6.93;;;1.98;;
21243;SDS011;10780;50.942;4.028;2022-08-03T10:47:27;4.10;;;1.60;;
21243;SDS011;10780;50.942;4.028;2022-08-03T10:49:53;3.85;;;1.50;;
21243;SDS011;10780;50.942;4.028;2022-08-03T10:52:19;5.43;;;1.48;;
21243;SDS011;10780;50.942;4.028;2022-08-03T10:54:44;3.72;;;1.48;;
21243;SDS011;10780;50.942;4.028;2022-08-03T10:57:48;4.10;;;1.45;;
21243;SDS011;10780;50.942;4.028;2022-08-03T11:00:18;4.15;;;1.60;;
21243;SDS011;10780;50.942;4.028;2022-08-03T11:05:42;3.65;;;1.40;;
21243;SDS011;10780;50.942;4.028;2022-08-03T11:08:20;3.90;;;1.30;;
21243;SDS011;10780;50.942;4.028;2022-08-03T11:10:47;2.95;;;1.52;;
21243;SDS011;10780;50.942;4.028;2022-08-03T11:13:14;5.20;;;1.98;;
21243;SDS011;10780;50.942;4.028;2022-08-03T11:15:42;3.85;;;1.40;;
21243;SDS011;10780;50.942;4.028;2022-08-03T11:18:10;3.72;;;1.40;;
21243;SDS011;10780;50.942;4.028;2022-08-03T11:20:48;5.43;;;2.08;;
21243;SDS011;10780;50.942;4.028;2022-08-03T11:24:03;4.32;;;1.45;;
21243;SDS011;10780;50.942;4.028;2022-08-03T11:28:46;3.40;;;1.50;;
21243;SDS011;10780;50.942;4.028;2022-08-03T11:39:39;2.92;;;1.30;;
21243;SDS011;10780;50.942;4.028;2022-08-03T11:44:50;4.43;;;1.55;;
21243;SDS011;10780;50.942;4.028;2022-08-03T11:47:16;3.63;;;1.52;;
21243;SDS011;10780;50.942;4.028;2022-08-03T11:49:47;5.82;;;1.30;;
21243;SDS011;10780;50.942;4.028;2022-08-03T11:52:13;3.55;;;1.30;;
21243;SDS011;10780;50.942;4.028;2022-08-03T11:54:41;1.90;;;1.08;;
21243;SDS011;10780;50.942;4.028;2022-08-03T11:57:07;2.13;;;1.15;;
21243;SDS011;10780;50.942;4.028;2022-08-03T11:59:33;4.13;;;1.13;;
21243;SDS011;10780;50.942;4.028;2022-08-03T12:04:49;5.30;;;1.30;;
21243;SDS011;10780;50.942;4.028;2022-08-03T12:07:15;2.55;;;1.38;;
21243;SDS011;10780;50.942;4.028;2022-08-03T12:09:42;4.35;;;1.30;;
21243;SDS011;10780;50.942;4.028;2022-08-03T12:12:08;4.55;;;1.20;;
21243;SDS011;10780;50.942;4.028;2022-08-03T12:14:34;4.35;;;1.40;;
21243;SDS011;10780;50.942;4.028;2022-08-03T12:16:59;2.78;;;1.33;;
21243;SDS011;10780;50.942;4.028;2022-08-03T12:19:25;3.10;;;1.15;;
21243;SDS011;10780;50.942;4.028;2022-08-03T12:21:51;1.90;;;1.05;;
21243;SDS011;10780;50.942;4.028;2022-08-03T12:24:16;3.90;;;1.20;;
21243;SDS011;10780;50.942;4.028;2022-08-03T12:26:46;3.17;;;1.20;;
21243;SDS011;10780;50.942;4.028;2022-08-03T12:29:20;3.47;;;1.45;;
21243;SDS011;10780;50.942;4.028;2022-08-03T12:31:49;1.67;;;1.20;;
21243;SDS011;10780;50.942;4.028;2022-08-03T12:34:15;4.32;;;1.45;;
21243;SDS011;10780;50.942;4.028;2022-08-03T12:36:49;2.47;;;1.20;;
21243;SDS011;10780;50.942;4.028;2022-08-03T12:39:16;3.58;;;1.50;;
21243;SDS011;10780;50.942;4.028;2022-08-03T12:41:51;2.30;;;1.30;;
21243;SDS011;10780;50.942;4.028;2022-08-03T12:44:27;5.32;;;1.58;;
21243;SDS011;10780;50.942;4.028;2022-08-03T12:46:58;4.63;;;1.58;;
21243;SDS011;10780;50.942;4.028;2022-08-03T12:49:25;1.95;;;1.20;;
21243;SDS011;10780;50.942;4.028;2022-08-03T12:54:21;2.42;;;1.35;;
21243;SDS011;10780;50.942;4.028;2022-08-03T12:56:59;1.42;;;1.10;;
21243;SDS011;10780;50.942;4.028;2022-08-03T12:59:33;1.95;;;1.30;;
21243;SDS011;10780;50.942;4.028;2022-08-03T13:02:12;1.85;;;1.10;;
21243;SDS011;10780;50.942;4.028;2022-08-03T13:04:40;1.48;;;1.10;;
21243;SDS011;10780;50.942;4.028;2022-08-03T13:07:06;3.45;;;1.50;;
21243;SDS011;10780;50.942;4.028;2022-08-03T13:12:25;2.25;;;1.20;;
21243;SDS011;10780;50.942;4.028;2022-08-03T13:14:55;3.25;;;1.33;;
21243;SDS011;10780;50.942;4.028;2022-08-03T13:17:23;2.13;;;1.10;;
21243;SDS011;10780;50.942;4.028;2022-08-03T13:19:49;4.35;;;1.65;;
21243;SDS011;10780;50.942;4.028;2022-08-03T13:22:19;4.50;;;1.30;;
21243;SDS011;10780;50.942;4.028;2022-08-03T13:24:50;6.78;;;1.63;;
21243;SDS011;10780;50.942;4.028;2022-08-03T13:27:16;2.83;;;1.23;;
21243;SDS011;10780;50.942;4.028;2022-08-03T13:29:42;3.78;;;1.10;;
21243;SDS011;10780;50.942;4.028;2022-08-03T13:32:08;5.18;;;1.35;;
21243;SDS011;10780;50.942;4.028;2022-08-03T13:34:35;2.72;;;1.30;;
21243;SDS011;10780;50.942;4.028;2022-08-03T13:37:01;2.03;;;1.08;;
21243;SDS011;10780;50.942;4.028;2022-08-03T13:39:27;5.57;;;1.30;;
21243;SDS011;10780;50.942;4.028;2022-08-03T13:41:55;3.35;;;1.52;;
21243;SDS011;10780;50.942;4.028;2022-08-03T13:44:20;2.50;;;1.42;;
21243;SDS011;10780;50.942;4.028;2022-08-03T13:46:46;1.52;;;1.25;;
21243;SDS011;10780;50.942;4.028;2022-08-03T13:49:12;3.78;;;1.35;;
21243;SDS011;10780;50.942;4.028;2022-08-03T13:51:38;4.82;;;1.58;;
21243;SDS011;10780;50.942;4.028;2022-08-03T13:54:03;4.20;;;1.60;;
21243;SDS011;10780;50.942;4.028;2022-08-03T13:56:29;3.35;;;1.55;;
21243;SDS011;10780;50.942;4.028;2022-08-03T13:58:56;2.67;;;1.40;;
21243;SDS011;10780;50.942;4.028;2022-08-03T14:01:22;3.13;;;1.70;;
21243;SDS011;10780;50.942;4.028;2022-08-03T14:03:48;2.85;;;1.20;;
21243;SDS011;10780;50.942;4.028;2022-08-03T14:06:18;4.07;;;1.75;;
21243;SDS011;10780;50.942;4.028;2022-08-03T14:08:44;2.53;;;1.33;;
21243;SDS011;10780;50.942;4.028;2022-08-03T14:11:10;3.20;;;1.60;;
21243;SDS011;10780;50.942;4.028;2022-08-03T14:13:36;5.35;;;1.50;;
21243;SDS011;10780;50.942;4.028;2022-08-03T14:16:02;2.97;;;1.33;;
21243;SDS011;10780;50.942;4.028;2022-08-03T14:18:28;3.88;;;1.20;;
21243;SDS011;10780;50.942;4.028;2022-08-03T14:20:53;3.22;;;1.45;;
21243;SDS011;10780;50.942;4.028;2022-08-03T14:23:19;4.05;;;1.40;;
21243;SDS011;10780;50.942;4.028;2022-08-03T14:25:45;4.50;;;1.48;;
21243;SDS011;10780;50.942;4.028;2022-08-03T14:28:11;3.75;;;1.40;;
21243;SDS011;10780;50.942;4.028;2022-08-03T14:30:36;2.22;;;1.50;;
21243;SDS011;10780;50.942;4.028;2022-08-03T14:33:02;3.10;;;1.48;;
21243;SDS011;10780;50.942;4.028;2022-08-03T14:35:27;4.88;;;1.48;;
21243;SDS011;10780;50.942;4.028;2022-08-03T14:37:53;3.22;;;1.27;;
21243;SDS011;10780;50.942;4.028;2022-08-03T14:40:19;2.55;;;1.20;;
21243;SDS011;10780;50.942;4.028;2022-08-03T14:42:45;5.25;;;1.70;;
21243;SDS011;10780;50.942;4.028;2022-08-03T14:45:11;3.92;;;1.40;;
21243;SDS011;10780;50.942;4.028;2022-08-03T14:47:37;1.73;;;1.33;;
21243;SDS011;10780;50.942;4.028;2022-08-03T14:50:03;2.13;;;1.13;;
21243;SDS011;10780;50.942;4.028;2022-08-03T14:52:30;2.85;;;1.52;;
21243;SDS011;10780;50.942;4.028;2022-08-03T14:54:57;6.35;;;1.38;;
21243;SDS011;10780;50.942;4.028;2022-08-03T14:57:23;3.20;;;1.38;;
21243;SDS011;10780;50.942;4.028;2022-08-03T14:59:49;1.95;;;1.10;;
21243;SDS011;10780;50.942;4.028;2022-08-03T15:02:15;5.47;;;1.35;;
21243;SDS011;10780;50.942;4.028;2022-08-03T15:04:40;4.57;;;1.58;;
21243;SDS011;10780;50.942;4.028;2022-08-03T15:07:06;2.85;;;1.30;;
21243;SDS011;10780;50.942;4.028;2022-08-03T15:09:32;3.35;;;1.33;;
21243;SDS011;10780;50.942;4.028;2022-08-03T15:11:57;3.83;;;1.30;;
21243;SDS011;10780;50.942;4.028;2022-08-03T15:14:23;3.08;;;1.50;;
21243;SDS011;10780;50.942;4.028;2022-08-03T15:16:49;3.42;;;1.38;;
21243;SDS011;10780;50.942;4.028;2022-08-03T15:19:15;4.78;;;1.30;;
21243;SDS011;10780;50.942;4.028;2022-08-03T15:21:41;3.92;;;1.35;;
21243;SDS011;10780;50.942;4.028;2022-08-03T15:24:07;6.15;;;1.70;;
21243;SDS011;10780;50.942;4.028;2022-08-03T15:26:32;3.25;;;1.50;;
21243;SDS011;10780;50.942;4.028;2022-08-03T15:28:58;3.47;;;1.50;;
21243;SDS011;10780;50.942;4.028;2022-08-03T15:31:23;4.65;;;1.63;;